Aviation Digital Data Service (ADDS)

Output produced by TAFs form (0359 UTC 23 September 2017)
found at http://www.aviationweather.gov/adds/tafs/
 
KRWF 222335Z 2300/2324 18016G22KT P6SM BKN150 
     FM230500 20014KT P6SM SCT120 BKN250 
     FM231500 20007KT P6SM SCT040 BKN250 
     FM232000 16007KT P6SM VCTS BKN040CB
       
KMSP 230321Z 2303/2406 18014KT P6SM BKN150 WS020/21050KT 
     FM230700 18009KT P6SM SCT120 BKN250 
     FM231700 18010KT P6SM SCT050